sensor_id;sensor_type;location;lat;lon;timestamp;temperature;humidity
63445;DHT22;49573;47.682;9.170;2023-04-24T00:01:14;11.20;82.30
63445;DHT22;49573;47.682;9.170;2023-04-24T00:04:01;11.20;82.60
63445;DHT22;49573;47.682;9.170;2023-04-24T00:06:47;11.20;83.50
63445;DHT22;49573;47.682;9.170;2023-04-24T00:09:39;11.20;82.60
63445;DHT22;49573;47.682;9.170;2023-04-24T00:12:27;11.30;83.20
63445;DHT22;49573;47.682;9.170;2023-04-24T00:15:13;11.20;83.00
63445;DHT22;49573;47.682;9.170;2023-04-24T00:17:59;11.10;82.90
63445;DHT22;49573;47.682;9.170;2023-04-24T00:20:46;11.20;82.80
63445;DHT22;49573;47.682;9.170;2023-04-24T00:23:33;11.10;83.00
63445;DHT22;49573;47.682;9.170;2023-04-24T00:26:19;11.20;83.00
63445;DHT22;49573;47.682;9.170;2023-04-24T00:45:48;11.50;82.80
63445;DHT22;49573;47.682;9.170;2023-04-24T00:48:34;11.40;83.00
63445;DHT22;49573;47.682;9.170;2023-04-24T00:51:21;11.20;84.10
63445;DHT22;49573;47.682;9.170;2023-04-24T00:54:07;11.20;84.30
63445;DHT22;49573;47.682;9.170;2023-04-24T00:56:53;11.20;84.10
63445;DHT22;49573;47.682;9.170;2023-04-24T00:59:39;11.10;84.30
63445;DHT22;49573;47.682;9.170;2023-04-24T01:02:28;11.10;84.30
63445;DHT22;49573;47.682;9.170;2023-04-24T01:05:15;11.20;84.70
63445;DHT22;49573;47.682;9.170;2023-04-24T01:08:03;11.10;84.30
63445;DHT22;49573;47.682;9.170;2023-04-24T01:10:51;11.10;84.60
63445;DHT22;49573;47.682;9.170;2023-04-24T01:13:37;11.00;83.90
63445;DHT22;49573;47.682;9.170;2023-04-24T01:16:23;11.00;83.50
63445;DHT22;49573;47.682;9.170;2023-04-24T01:19:11;11.00;83.70
63445;DHT22;49573;47.682;9.170;2023-04-24T01:21:58;10.90;83.70
63445;DHT22;49573;47.682;9.170;2023-04-24T01:24:49;10.90;82.90
63445;DHT22;49573;47.682;9.170;2023-04-24T01:27:35;10.90;82.40
63445;DHT22;49573;47.682;9.170;2023-04-24T01:30:21;10.80;81.40
63445;DHT22;49573;47.682;9.170;2023-04-24T01:33:07;10.80;82.10
63445;DHT22;49573;47.682;9.170;2023-04-24T01:35:54;10.80;82.00
63445;DHT22;49573;47.682;9.170;2023-04-24T01:38:40;10.70;81.90
63445;DHT22;49573;47.682;9.170;2023-04-24T01:41:27;10.70;82.00
63445;DHT22;49573;47.682;9.170;2023-04-24T01:44:14;10.70;82.30
63445;DHT22;49573;47.682;9.170;2023-04-24T01:47:00;10.60;82.00
63445;DHT22;49573;47.682;9.170;2023-04-24T01:49:48;10.50;81.50
63445;DHT22;49573;47.682;9.170;2023-04-24T01:52:34;10.50;81.70
63445;DHT22;49573;47.682;9.170;2023-04-24T01:55:21;10.50;80.50
63445;DHT22;49573;47.682;9.170;2023-04-24T01:58:09;10.40;81.20
63445;DHT22;49573;47.682;9.170;2023-04-24T02:00:56;10.40;81.00
63445;DHT22;49573;47.682;9.170;2023-04-24T02:03:42;10.40;81.60
63445;DHT22;49573;47.682;9.170;2023-04-24T02:06:28;10.40;81.80
63445;DHT22;49573;47.682;9.170;2023-04-24T02:09:14;10.30;81.80
63445;DHT22;49573;47.682;9.170;2023-04-24T02:12:00;10.30;81.60
63445;DHT22;49573;47.682;9.170;2023-04-24T02:14:47;10.20;82.00
63445;DHT22;49573;47.682;9.170;2023-04-24T02:17:33;10.30;81.80
63445;DHT22;49573;47.682;9.170;2023-04-24T02:20:19;10.30;81.90
63445;DHT22;49573;47.682;9.170;2023-04-24T02:23:05;10.30;81.80
63445;DHT22;49573;47.682;9.170;2023-04-24T02:25:51;10.30;81.20
63445;DHT22;49573;47.682;9.170;2023-04-24T02:28:38;10.30;81.50
63445;DHT22;49573;47.682;9.170;2023-04-24T02:31:26;10.30;82.10
63445;DHT22;49573;47.682;9.170;2023-04-24T02:34:12;10.30;81.20
63445;DHT22;49573;47.682;9.170;2023-04-24T02:36:58;10.30;81.20
63445;DHT22;49573;47.682;9.170;2023-04-24T02:39:44;10.30;80.90
63445;DHT22;49573;47.682;9.170;2023-04-24T02:42:30;10.20;81.00
63445;DHT22;49573;47.682;9.170;2023-04-24T02:45:16;10.20;81.30
63445;DHT22;49573;47.682;9.170;2023-04-24T02:48:03;10.20;80.80
63445;DHT22;49573;47.682;9.170;2023-04-24T02:50:50;10.20;81.40
63445;DHT22;49573;47.682;9.170;2023-04-24T02:53:36;10.10;81.60
63445;DHT22;49573;47.682;9.170;2023-04-24T02:56:22;10.10;81.70
63445;DHT22;49573;47.682;9.170;2023-04-24T02:59:09;10.10;81.70
63445;DHT22;49573;47.682;9.170;2023-04-24T03:01:56;10.10;82.00
63445;DHT22;49573;47.682;9.170;2023-04-24T03:04:43;10.10;82.40
63445;DHT22;49573;47.682;9.170;2023-04-24T03:07:29;10.10;82.40
63445;DHT22;49573;47.682;9.170;2023-04-24T03:10:16;10.10;82.60
63445;DHT22;49573;47.682;9.170;2023-04-24T03:13:02;10.10;82.60
63445;DHT22;49573;47.682;9.170;2023-04-24T03:15:49;10.10;82.30
63445;DHT22;49573;47.682;9.170;2023-04-24T03:18:35;10.10;82.40
63445;DHT22;49573;47.682;9.170;2023-04-24T03:21:22;10.00;82.30
63445;DHT22;49573;47.682;9.170;2023-04-24T03:24:08;10.00;82.80
63445;DHT22;49573;47.682;9.170;2023-04-24T03:26:55;10.00;82.30
63445;DHT22;49573;47.682;9.170;2023-04-24T03:29:42;10.00;82.10
63445;DHT22;49573;47.682;9.170;2023-04-24T03:32:28;9.90;81.70
63445;DHT22;49573;47.682;9.170;2023-04-24T03:35:14;9.90;81.40
63445;DHT22;49573;47.682;9.170;2023-04-24T03:38:02;9.80;81.70
63445;DHT22;49573;47.682;9.170;2023-04-24T03:40:50;9.80;81.70
63445;DHT22;49573;47.682;9.170;2023-04-24T03:43:38;9.80;81.60
63445;DHT22;49573;47.682;9.170;2023-04-24T03:46:25;9.80;81.60
63445;DHT22;49573;47.682;9.170;2023-04-24T03:49:11;9.80;81.80
63445;DHT22;49573;47.682;9.170;2023-04-24T03:51:57;9.80;81.80
63445;DHT22;49573;47.682;9.170;2023-04-24T03:54:44;9.80;81.80
63445;DHT22;49573;47.682;9.170;2023-04-24T03:57:30;9.80;82.00
63445;DHT22;49573;47.682;9.170;2023-04-24T04:00:16;9.80;81.90
63445;DHT22;49573;47.682;9.170;2023-04-24T04:03:02;9.80;81.80
63445;DHT22;49573;47.682;9.170;2023-04-24T04:05:48;9.80;81.70
63445;DHT22;49573;47.682;9.170;2023-04-24T04:08:34;9.70;82.00
63445;DHT22;49573;47.682;9.170;2023-04-24T04:11:22;9.70;81.80
63445;DHT22;49573;47.682;9.170;2023-04-24T04:14:08;9.70;81.50
63445;DHT22;49573;47.682;9.170;2023-04-24T04:16:54;9.80;81.20
63445;DHT22;49573;47.682;9.170;2023-04-24T04:19:40;9.70;81.30
63445;DHT22;49573;47.682;9.170;2023-04-24T04:22:26;9.70;81.00
63445;DHT22;49573;47.682;9.170;2023-04-24T04:25:12;9.70;81.60
63445;DHT22;49573;47.682;9.170;2023-04-24T04:28:00;9.70;81.30
63445;DHT22;49573;47.682;9.170;2023-04-24T04:30:47;9.70;81.30
63445;DHT22;49573;47.682;9.170;2023-04-24T04:33:33;9.70;81.10
63445;DHT22;49573;47.682;9.170;2023-04-24T04:36:20;9.70;80.90
63445;DHT22;49573;47.682;9.170;2023-04-24T04:39:06;9.70;80.90
63445;DHT22;49573;47.682;9.170;2023-04-24T04:41:52;9.80;81.00
63445;DHT22;49573;47.682;9.170;2023-04-24T04:44:40;9.70;81.10
63445;DHT22;49573;47.682;9.170;2023-04-24T04:47:26;9.70;81.20
63445;DHT22;49573;47.682;9.170;2023-04-24T04:50:14;9.70;81.50
63445;DHT22;49573;47.682;9.170;2023-04-24T04:53:00;9.70;81.40
63445;DHT22;49573;47.682;9.170;2023-04-24T04:55:47;9.80;81.50
63445;DHT22;49573;47.682;9.170;2023-04-24T04:58:33;9.80;81.20
63445;DHT22;49573;47.682;9.170;2023-04-24T05:01:20;9.80;81.20
63445;DHT22;49573;47.682;9.170;2023-04-24T05:04:07;9.80;80.90
63445;DHT22;49573;47.682;9.170;2023-04-24T05:06:53;9.90;80.50
63445;DHT22;49573;47.682;9.170;2023-04-24T05:09:39;9.90;81.30
63445;DHT22;49573;47.682;9.170;2023-04-24T05:12:25;9.90;81.20
63445;DHT22;49573;47.682;9.170;2023-04-24T05:15:11;9.90;81.40
63445;DHT22;49573;47.682;9.170;2023-04-24T05:17:58;9.90;81.30
63445;DHT22;49573;47.682;9.170;2023-04-24T05:20:44;9.80;81.20
63445;DHT22;49573;47.682;9.170;2023-04-24T05:23:30;9.80;81.20
63445;DHT22;49573;47.682;9.170;2023-04-24T05:26:17;9.80;81.20
63445;DHT22;49573;47.682;9.170;2023-04-24T05:29:03;9.80;81.10
63445;DHT22;49573;47.682;9.170;2023-04-24T05:31:49;9.80;81.30
63445;DHT22;49573;47.682;9.170;2023-04-24T05:34:37;9.80;81.50
63445;DHT22;49573;47.682;9.170;2023-04-24T05:37:24;9.70;82.00
63445;DHT22;49573;47.682;9.170;2023-04-24T05:40:10;9.70;82.00
63445;DHT22;49573;47.682;9.170;2023-04-24T05:42:57;9.70;82.10
63445;DHT22;49573;47.682;9.170;2023-04-24T05:45:43;9.70;81.90
63445;DHT22;49573;47.682;9.170;2023-04-24T05:48:29;9.70;81.80
63445;DHT22;49573;47.682;9.170;2023-04-24T05:51:17;9.70;81.80
63445;DHT22;49573;47.682;9.170;2023-04-24T05:54:03;9.70;82.20
63445;DHT22;49573;47.682;9.170;2023-04-24T05:56:49;9.80;81.70
63445;DHT22;49573;47.682;9.170;2023-04-24T05:59:37;9.80;81.50
63445;DHT22;49573;47.682;9.170;2023-04-24T06:02:24;9.90;80.80
63445;DHT22;49573;47.682;9.170;2023-04-24T06:05:10;10.00;81.30
63445;DHT22;49573;47.682;9.170;2023-04-24T06:07:57;10.00;80.80
63445;DHT22;49573;47.682;9.170;2023-04-24T06:10:43;10.00;80.60
63445;DHT22;49573;47.682;9.170;2023-04-24T06:13:29;10.00;80.30
63445;DHT22;49573;47.682;9.170;2023-04-24T06:16:15;9.90;80.40
63445;DHT22;49573;47.682;9.170;2023-04-24T06:19:01;10.00;80.80
63445;DHT22;49573;47.682;9.170;2023-04-24T06:21:47;10.10;80.40
63445;DHT22;49573;47.682;9.170;2023-04-24T06:24:35;10.20;80.30
63445;DHT22;49573;47.682;9.170;2023-04-24T06:27:21;10.10;80.00
63445;DHT22;49573;47.682;9.170;2023-04-24T06:30:08;10.20;79.70
63445;DHT22;49573;47.682;9.170;2023-04-24T06:32:54;10.20;79.30
63445;DHT22;49573;47.682;9.170;2023-04-24T06:35:41;10.20;79.20
63445;DHT22;49573;47.682;9.170;2023-04-24T06:38:27;10.20;79.70
63445;DHT22;49573;47.682;9.170;2023-04-24T06:41:16;10.20;79.20
63445;DHT22;49573;47.682;9.170;2023-04-24T06:44:02;10.40;78.30
63445;DHT22;49573;47.682;9.170;2023-04-24T06:46:48;10.50;78.20
63445;DHT22;49573;47.682;9.170;2023-04-24T06:49:34;10.50;78.30
63445;DHT22;49573;47.682;9.170;2023-04-24T06:52:21;10.60;78.00
63445;DHT22;49573;47.682;9.170;2023-04-24T06:55:07;10.70;77.20
63445;DHT22;49573;47.682;9.170;2023-04-24T06:57:55;10.70;77.70
63445;DHT22;49573;47.682;9.170;2023-04-24T07:00:41;10.80;76.80
63445;DHT22;49573;47.682;9.170;2023-04-24T07:03:27;11.00;75.80
63445;DHT22;49573;47.682;9.170;2023-04-24T07:06:13;11.10;74.50
63445;DHT22;49573;47.682;9.170;2023-04-24T07:09:00;11.20;73.90
63445;DHT22;49573;47.682;9.170;2023-04-24T07:11:47;11.20;74.00
63445;DHT22;49573;47.682;9.170;2023-04-24T07:14:34;11.30;72.80
63445;DHT22;49573;47.682;9.170;2023-04-24T07:17:20;11.30;72.00
63445;DHT22;49573;47.682;9.170;2023-04-24T07:20:07;11.30;71.40
63445;DHT22;49573;47.682;9.170;2023-04-24T07:22:56;11.30;72.80
63445;DHT22;49573;47.682;9.170;2023-04-24T07:25:42;11.50;71.80
63445;DHT22;49573;47.682;9.170;2023-04-24T07:28:28;11.40;72.60
63445;DHT22;49573;47.682;9.170;2023-04-24T07:31:18;11.40;71.40
63445;DHT22;49573;47.682;9.170;2023-04-24T07:34:04;11.50;72.00
63445;DHT22;49573;47.682;9.170;2023-04-24T07:36:50;11.60;71.40
63445;DHT22;49573;47.682;9.170;2023-04-24T07:39:36;11.70;70.40
63445;DHT22;49573;47.682;9.170;2023-04-24T07:42:22;11.70;71.60
63445;DHT22;49573;47.682;9.170;2023-04-24T07:45:09;11.80;68.00
63445;DHT22;49573;47.682;9.170;2023-04-24T07:47:56;11.90;70.30
63445;DHT22;49573;47.682;9.170;2023-04-24T07:50:42;11.80;69.30
63445;DHT22;49573;47.682;9.170;2023-04-24T07:53:28;11.80;68.30
63445;DHT22;49573;47.682;9.170;2023-04-24T07:56:14;11.80;68.40
63445;DHT22;49573;47.682;9.170;2023-04-24T07:59:00;12.10;68.70
63445;DHT22;49573;47.682;9.170;2023-04-24T08:01:47;12.10;68.60
63445;DHT22;49573;47.682;9.170;2023-04-24T08:04:34;12.10;67.10
63445;DHT22;49573;47.682;9.170;2023-04-24T08:07:20;11.90;66.90
63445;DHT22;49573;47.682;9.170;2023-04-24T08:10:07;11.70;67.20
63445;DHT22;49573;47.682;9.170;2023-04-24T08:12:53;11.70;68.60
63445;DHT22;49573;47.682;9.170;2023-04-24T08:15:41;11.50;68.80
63445;DHT22;49573;47.682;9.170;2023-04-24T08:18:27;11.40;69.30
63445;DHT22;49573;47.682;9.170;2023-04-24T08:21:14;11.50;68.20
63445;DHT22;49573;47.682;9.170;2023-04-24T08:24:03;11.50;66.10
63445;DHT22;49573;47.682;9.170;2023-04-24T08:26:52;11.30;66.10
63445;DHT22;49573;47.682;9.170;2023-04-24T08:29:39;11.40;66.90
63445;DHT22;49573;47.682;9.170;2023-04-24T08:32:26;11.30;66.50
63445;DHT22;49573;47.682;9.170;2023-04-24T08:35:15;11.30;66.30
63445;DHT22;49573;47.682;9.170;2023-04-24T08:38:02;11.20;66.90
63445;DHT22;49573;47.682;9.170;2023-04-24T08:40:49;11.20;65.80
63445;DHT22;49573;47.682;9.170;2023-04-24T08:43:35;11.20;66.70
63445;DHT22;49573;47.682;9.170;2023-04-24T08:46:22;11.30;66.30
63445;DHT22;49573;47.682;9.170;2023-04-24T08:49:09;11.10;64.60
63445;DHT22;49573;47.682;9.170;2023-04-24T08:51:56;11.20;65.50
63445;DHT22;49573;47.682;9.170;2023-04-24T08:54:44;11.30;65.40
63445;DHT22;49573;47.682;9.170;2023-04-24T08:57:32;11.30;66.30
63445;DHT22;49573;47.682;9.170;2023-04-24T09:00:20;11.30;65.90
63445;DHT22;49573;47.682;9.170;2023-04-24T09:03:06;11.30;64.80
63445;DHT22;49573;47.682;9.170;2023-04-24T09:05:52;11.40;63.90
63445;DHT22;49573;47.682;9.170;2023-04-24T09:08:41;11.50;64.40
63445;DHT22;49573;47.682;9.170;2023-04-24T09:11:31;11.60;64.60
63445;DHT22;49573;47.682;9.170;2023-04-24T09:14:19;11.40;63.00
63445;DHT22;49573;47.682;9.170;2023-04-24T09:17:06;11.40;62.50
63445;DHT22;49573;47.682;9.170;2023-04-24T09:19:52;11.40;64.10
63445;DHT22;49573;47.682;9.170;2023-04-24T09:22:38;11.60;63.40
63445;DHT22;49573;47.682;9.170;2023-04-24T09:25:31;11.60;62.10
63445;DHT22;49573;47.682;9.170;2023-04-24T09:28:19;11.70;61.50
63445;DHT22;49573;47.682;9.170;2023-04-24T09:31:06;11.80;60.80
63445;DHT22;49573;47.682;9.170;2023-04-24T09:33:57;11.80;61.60
63445;DHT22;49573;47.682;9.170;2023-04-24T09:36:44;11.80;60.90
63445;DHT22;49573;47.682;9.170;2023-04-24T09:39:30;12.20;62.20
63445;DHT22;49573;47.682;9.170;2023-04-24T09:42:16;12.30;60.30
63445;DHT22;49573;47.682;9.170;2023-04-24T09:45:07;12.50;59.30
63445;DHT22;49573;47.682;9.170;2023-04-24T09:47:55;12.80;59.60
63445;DHT22;49573;47.682;9.170;2023-04-24T09:50:45;12.70;59.60
63445;DHT22;49573;47.682;9.170;2023-04-24T09:53:32;12.80;58.40
63445;DHT22;49573;47.682;9.170;2023-04-24T09:56:18;13.10;57.50
63445;DHT22;49573;47.682;9.170;2023-04-24T09:59:06;13.30;56.20
63445;DHT22;49573;47.682;9.170;2023-04-24T10:01:54;13.20;54.50
63445;DHT22;49573;47.682;9.170;2023-04-24T10:04:40;13.50;56.70
63445;DHT22;49573;47.682;9.170;2023-04-24T10:07:26;13.50;55.50
63445;DHT22;49573;47.682;9.170;2023-04-24T10:10:12;13.80;54.90
63445;DHT22;49573;47.682;9.170;2023-04-24T10:12:59;13.70;54.40
63445;DHT22;49573;47.682;9.170;2023-04-24T10:15:46;14.00;54.30
63445;DHT22;49573;47.682;9.170;2023-04-24T10:18:34;14.10;53.40
63445;DHT22;49573;47.682;9.170;2023-04-24T10:21:21;14.30;53.40
63445;DHT22;49573;47.682;9.170;2023-04-24T10:24:07;13.90;54.20
63445;DHT22;49573;47.682;9.170;2023-04-24T10:26:54;13.40;52.80
63445;DHT22;49573;47.682;9.170;2023-04-24T10:29:41;13.50;54.50
63445;DHT22;49573;47.682;9.170;2023-04-24T10:32:29;13.20;55.20
63445;DHT22;49573;47.682;9.170;2023-04-24T10:35:18;13.30;55.30
63445;DHT22;49573;47.682;9.170;2023-04-24T10:38:08;13.00;54.50
63445;DHT22;49573;47.682;9.170;2023-04-24T10:40:58;12.80;53.50
63445;DHT22;49573;47.682;9.170;2023-04-24T10:44:04;12.70;54.50
63445;DHT22;49573;47.682;9.170;2023-04-24T10:46:54;12.70;53.00
63445;DHT22;49573;47.682;9.170;2023-04-24T10:49:41;12.70;52.30
63445;DHT22;49573;47.682;9.170;2023-04-24T10:52:46;12.80;52.50
63445;DHT22;49573;47.682;9.170;2023-04-24T10:55:43;13.10;52.30
63445;DHT22;49573;47.682;9.170;2023-04-24T10:58:37;13.40;52.30
63445;DHT22;49573;47.682;9.170;2023-04-24T11:01:25;13.30;52.50
63445;DHT22;49573;47.682;9.170;2023-04-24T11:04:12;13.30;53.60
63445;DHT22;49573;47.682;9.170;2023-04-24T11:06:58;13.60;51.50
63445;DHT22;49573;47.682;9.170;2023-04-24T11:09:45;14.10;52.90
63445;DHT22;49573;47.682;9.170;2023-04-24T11:12:34;13.80;49.40
63445;DHT22;49573;47.682;9.170;2023-04-24T11:15:20;14.20;50.20
63445;DHT22;49573;47.682;9.170;2023-04-24T11:18:07;14.80;48.40
63445;DHT22;49573;47.682;9.170;2023-04-24T11:20:54;14.90;48.70
63445;DHT22;49573;47.682;9.170;2023-04-24T11:23:40;15.20;49.00
63445;DHT22;49573;47.682;9.170;2023-04-24T11:26:28;15.00;48.00
63445;DHT22;49573;47.682;9.170;2023-04-24T11:29:19;14.80;49.30
63445;DHT22;49573;47.682;9.170;2023-04-24T11:32:24;14.60;49.30
63445;DHT22;49573;47.682;9.170;2023-04-24T11:35:14;14.20;51.10
63445;DHT22;49573;47.682;9.170;2023-04-24T11:38:02;13.80;50.80
63445;DHT22;49573;47.682;9.170;2023-04-24T11:40:49;13.90;50.80
63445;DHT22;49573;47.682;9.170;2023-04-24T11:43:36;13.60;51.10
63445;DHT22;49573;47.682;9.170;2023-04-24T11:46:27;13.70;50.00
63445;DHT22;49573;47.682;9.170;2023-04-24T11:49:13;14.20;50.70
63445;DHT22;49573;47.682;9.170;2023-04-24T11:52:00;14.10;49.00
63445;DHT22;49573;47.682;9.170;2023-04-24T11:54:48;14.90;50.00
63445;DHT22;49573;47.682;9.170;2023-04-24T11:57:35;15.30;47.90
63445;DHT22;49573;47.682;9.170;2023-04-24T12:00:24;15.40;48.70
63445;DHT22;49573;47.682;9.170;2023-04-24T12:03:11;14.70;47.90
63445;DHT22;49573;47.682;9.170;2023-04-24T12:06:07;14.50;47.80
63445;DHT22;49573;47.682;9.170;2023-04-24T12:08:54;14.60;48.00
63445;DHT22;49573;47.682;9.170;2023-04-24T12:11:52;15.50;48.30
63445;DHT22;49573;47.682;9.170;2023-04-24T12:14:47;15.90;47.20
63445;DHT22;49573;47.682;9.170;2023-04-24T12:17:35;15.80;46.20
63445;DHT22;49573;47.682;9.170;2023-04-24T12:20:26;15.30;46.50
63445;DHT22;49573;47.682;9.170;2023-04-24T12:23:12;14.80;47.60
63445;DHT22;49573;47.682;9.170;2023-04-24T12:26:00;15.30;48.80
63445;DHT22;49573;47.682;9.170;2023-04-24T12:28:48;15.40;46.80
63445;DHT22;49573;47.682;9.170;2023-04-24T12:31:35;15.30;49.30
63445;DHT22;49573;47.682;9.170;2023-04-24T12:34:23;15.20;47.70
63445;DHT22;49573;47.682;9.170;2023-04-24T12:37:10;15.00;47.70
63445;DHT22;49573;47.682;9.170;2023-04-24T12:40:04;15.00;48.60
63445;DHT22;49573;47.682;9.170;2023-04-24T12:42:54;15.30;47.70
63445;DHT22;49573;47.682;9.170;2023-04-24T12:45:40;14.90;48.20
63445;DHT22;49573;47.682;9.170;2023-04-24T12:48:27;14.70;49.10
63445;DHT22;49573;47.682;9.170;2023-04-24T12:51:14;14.80;49.40
63445;DHT22;49573;47.682;9.170;2023-04-24T12:54:00;15.70;46.90
63445;DHT22;49573;47.682;9.170;2023-04-24T12:56:46;15.20;46.30
63445;DHT22;49573;47.682;9.170;2023-04-24T12:59:32;14.80;47.60
63445;DHT22;49573;47.682;9.170;2023-04-24T13:02:18;14.90;46.20
63445;DHT22;49573;47.682;9.170;2023-04-24T13:05:05;14.80;47.70
63445;DHT22;49573;47.682;9.170;2023-04-24T13:07:52;14.90;46.30
63445;DHT22;49573;47.682;9.170;2023-04-24T13:10:39;15.60;46.50
63445;DHT22;49573;47.682;9.170;2023-04-24T13:13:25;15.20;46.00
63445;DHT22;49573;47.682;9.170;2023-04-24T13:16:11;15.20;46.40
63445;DHT22;49573;47.682;9.170;2023-04-24T13:18:58;15.30;46.80
63445;DHT22;49573;47.682;9.170;2023-04-24T13:21:44;15.80;45.90
63445;DHT22;49573;47.682;9.170;2023-04-24T13:24:31;16.10;44.90
63445;DHT22;49573;47.682;9.170;2023-04-24T13:27:18;15.90;46.50
63445;DHT22;49573;47.682;9.170;2023-04-24T13:30:05;15.90;44.40
63445;DHT22;49573;47.682;9.170;2023-04-24T13:32:51;15.50;44.10
63445;DHT22;49573;47.682;9.170;2023-04-24T13:35:37;15.80;44.90
63445;DHT22;49573;47.682;9.170;2023-04-24T13:38:23;16.20;45.50
63445;DHT22;49573;47.682;9.170;2023-04-24T13:41:10;15.80;43.30
63445;DHT22;49573;47.682;9.170;2023-04-24T13:43:56;16.20;44.60
63445;DHT22;49573;47.682;9.170;2023-04-24T13:46:43;16.30;44.90
63445;DHT22;49573;47.682;9.170;2023-04-24T13:55:06;17.20;40.90
63445;DHT22;49573;47.682;9.170;2023-04-24T13:57:53;17.30;42.70
63445;DHT22;49573;47.682;9.170;2023-04-24T14:00:40;17.80;40.90
63445;DHT22;49573;47.682;9.170;2023-04-24T14:03:26;17.70;42.40
63445;DHT22;49573;47.682;9.170;2023-04-24T14:06:12;17.30;42.00
63445;DHT22;49573;47.682;9.170;2023-04-24T14:08:58;17.40;42.10
63445;DHT22;49573;47.682;9.170;2023-04-24T14:14:32;16.10;43.60
63445;DHT22;49573;47.682;9.170;2023-04-24T14:17:18;16.60;43.60
63445;DHT22;49573;47.682;9.170;2023-04-24T14:20:05;16.80;44.00
63445;DHT22;49573;47.682;9.170;2023-04-24T14:22:52;16.80;43.70
63445;DHT22;49573;47.682;9.170;2023-04-24T14:28:25;16.80;42.90
63445;DHT22;49573;47.682;9.170;2023-04-24T14:31:14;16.40;43.00
63445;DHT22;49573;47.682;9.170;2023-04-24T14:34:00;16.30;44.70
63445;DHT22;49573;47.682;9.170;2023-04-24T14:36:46;16.80;44.40
63445;DHT22;49573;47.682;9.170;2023-04-24T14:39:32;16.40;44.20
63445;DHT22;49573;47.682;9.170;2023-04-24T14:42:18;16.20;44.50
63445;DHT22;49573;47.682;9.170;2023-04-24T14:45:05;16.00;44.90
63445;DHT22;49573;47.682;9.170;2023-04-24T14:47:52;16.00;45.80
63445;DHT22;49573;47.682;9.170;2023-04-24T14:50:38;15.70;46.10
63445;DHT22;49573;47.682;9.170;2023-04-24T14:53:25;16.20;44.30
63445;DHT22;49573;47.682;9.170;2023-04-24T14:58:57;17.90;41.20
63445;DHT22;49573;47.682;9.170;2023-04-24T15:01:43;17.60;41.10
63445;DHT22;49573;47.682;9.170;2023-04-24T15:04:30;17.00;42.50
63445;DHT22;49573;47.682;9.170;2023-04-24T15:10:03;15.70;46.00
63445;DHT22;49573;47.682;9.170;2023-04-24T15:12:50;15.50;46.50
63445;DHT22;49573;47.682;9.170;2023-04-24T15:15:36;15.10;48.30
63445;DHT22;49573;47.682;9.170;2023-04-24T15:18:22;14.80;48.10
63445;DHT22;49573;47.682;9.170;2023-04-24T15:21:10;14.70;48.60
63445;DHT22;49573;47.682;9.170;2023-04-24T15:23:56;14.50;49.60
63445;DHT22;49573;47.682;9.170;2023-04-24T15:26:42;14.80;49.10
63445;DHT22;49573;47.682;9.170;2023-04-24T15:29:28;14.50;48.90
63445;DHT22;49573;47.682;9.170;2023-04-24T15:32:15;15.10;49.60
63445;DHT22;49573;47.682;9.170;2023-04-24T15:35:01;15.00;47.60
63445;DHT22;49573;47.682;9.170;2023-04-24T15:37:48;15.90;45.90
63445;DHT22;49573;47.682;9.170;2023-04-24T15:40:34;16.50;46.10
63445;DHT22;49573;47.682;9.170;2023-04-24T15:43:20;16.30;44.40
63445;DHT22;49573;47.682;9.170;2023-04-24T15:46:06;16.70;44.30
63445;DHT22;49573;47.682;9.170;2023-04-24T15:48:53;16.80;43.30
63445;DHT22;49573;47.682;9.170;2023-04-24T15:51:39;16.50;43.10
63445;DHT22;49573;47.682;9.170;2023-04-24T15:54:26;16.80;44.60
63445;DHT22;49573;47.682;9.170;2023-04-24T15:57:12;16.50;43.80
63445;DHT22;49573;47.682;9.170;2023-04-24T15:59:58;17.00;43.20
63445;DHT22;49573;47.682;9.170;2023-04-24T16:02:45;16.80;42.80
63445;DHT22;49573;47.682;9.170;2023-04-24T16:05:32;16.60;43.40
63445;DHT22;49573;47.682;9.170;2023-04-24T16:08:18;16.70;43.90
63445;DHT22;49573;47.682;9.170;2023-04-24T16:11:07;17.20;43.30
63445;DHT22;49573;47.682;9.170;2023-04-24T16:13:53;16.80;43.10
63445;DHT22;49573;47.682;9.170;2023-04-24T16:22:11;16.60;43.40
63445;DHT22;49573;47.682;9.170;2023-04-24T16:24:58;16.50;43.50
63445;DHT22;49573;47.682;9.170;2023-04-24T16:27:45;16.30;44.90
63445;DHT22;49573;47.682;9.170;2023-04-24T16:30:33;16.70;44.60
63445;DHT22;49573;47.682;9.170;2023-04-24T16:33:19;16.40;44.20
63445;DHT22;49573;47.682;9.170;2023-04-24T16:36:05;16.30;44.70
63445;DHT22;49573;47.682;9.170;2023-04-24T16:38:51;15.80;45.50
63445;DHT22;49573;47.682;9.170;2023-04-24T16:41:37;16.30;44.70
63445;DHT22;49573;47.682;9.170;2023-04-24T16:44:25;17.10;44.90
63445;DHT22;49573;47.682;9.170;2023-04-24T16:47:11;17.80;42.00
63445;DHT22;49573;47.682;9.170;2023-04-24T16:49:59;17.80;41.90
63445;DHT22;49573;47.682;9.170;2023-04-24T16:52:45;18.00;41.70
63445;DHT22;49573;47.682;9.170;2023-04-24T16:55:31;17.30;43.20
63445;DHT22;49573;47.682;9.170;2023-04-24T16:58:17;16.20;46.00
63445;DHT22;49573;47.682;9.170;2023-04-24T17:01:05;15.80;46.60
63445;DHT22;49573;47.682;9.170;2023-04-24T17:03:51;15.00;46.60
63445;DHT22;49573;47.682;9.170;2023-04-24T17:06:37;15.10;46.20
63445;DHT22;49573;47.682;9.170;2023-04-24T17:09:23;14.80;46.80
63445;DHT22;49573;47.682;9.170;2023-04-24T17:12:09;14.60;46.60
63445;DHT22;49573;47.682;9.170;2023-04-24T17:14:55;13.90;46.80
63445;DHT22;49573;47.682;9.170;2023-04-24T17:17:43;13.80;47.30
63445;DHT22;49573;47.682;9.170;2023-04-24T17:20:30;13.80;47.70
63445;DHT22;49573;47.682;9.170;2023-04-24T17:23:16;13.80;47.70
63445;DHT22;49573;47.682;9.170;2023-04-24T17:26:03;13.70;48.50
63445;DHT22;49573;47.682;9.170;2023-04-24T17:28:50;13.80;48.30
63445;DHT22;49573;47.682;9.170;2023-04-24T17:31:39;14.20;48.70
63445;DHT22;49573;47.682;9.170;2023-04-24T17:34:26;14.40;48.40
63445;DHT22;49573;47.682;9.170;2023-04-24T17:37:12;14.10;49.20
63445;DHT22;49573;47.682;9.170;2023-04-24T17:39:58;14.00;48.90
63445;DHT22;49573;47.682;9.170;2023-04-24T17:42:45;13.80;49.40
63445;DHT22;49573;47.682;9.170;2023-04-24T17:45:31;13.80;49.50
63445;DHT22;49573;47.682;9.170;2023-04-24T17:48:18;13.50;50.00
63445;DHT22;49573;47.682;9.170;2023-04-24T17:51:05;13.60;49.40
63445;DHT22;49573;47.682;9.170;2023-04-24T17:53:51;13.40;49.20
63445;DHT22;49573;47.682;9.170;2023-04-24T17:56:37;13.20;49.60
63445;DHT22;49573;47.682;9.170;2023-04-24T17:59:23;13.20;49.40
63445;DHT22;49573;47.682;9.170;2023-04-24T18:02:09;13.10;49.60
63445;DHT22;49573;47.682;9.170;2023-04-24T18:04:55;13.00;49.60
63445;DHT22;49573;47.682;9.170;2023-04-24T18:07:43;12.80;50.10
63445;DHT22;49573;47.682;9.170;2023-04-24T18:10:30;12.70;50.50
63445;DHT22;49573;47.682;9.170;2023-04-24T18:13:16;12.70;51.40
63445;DHT22;49573;47.682;9.170;2023-04-24T18:16:02;12.60;51.60